Forside
METAR-TAF:

METAR-TAF

Lufthavne :

Twin County Airport

Galax / Hillsville, Virginia, USA

Breddekreds: 36-46N, længdekreds: 080-49W, højde: 834 m

Aktuelle vejr

Denne rapport blev lavet for 25 minutter siden, kl. 13:55 UTC
Vind 4 kt fra nordnordøst
Temperatur 7°C
Fugtighed 66%
Tryk 1012 hPa
Sigt: 16.1 km
Spredte skyer i en højde af 4800 ft
Overskyet i en højde af 7000 ft

METAR: KHLX 311355Z AUTO 02004KT 10SM SCT048 OVC070 07/01 A2989 RMK AO2 T00730013

Tid: 10:20 (14:20 UTC)


TAF: fraværende

Vejrobservationer og prognoser fra mere end 4000 lufthavne (METAR og TAF).

De gule og røde prikker repræsenterer de meteorologiske stationer.

Flyt musen over at se navnet på stationen.

Så klik over at se vejr observationer og prognoser.

At skifte det kort: Klik på de grønne knapper med et sort kors for at zoome ind; på den grønne knap med en bindestreg for at zoome ud; eller på de grønne pile for tilstødende kort.


METAR-TAF: